createdAt,value
2022-08-03T05:14:54.035Z,5.05
2022-08-03T05:21:52.015Z,5.47
2022-08-03T05:24:57.777Z,5.20
2022-08-03T05:28:02.498Z,3.33
2022-08-03T05:34:11.360Z,4.15
2022-08-03T05:37:18.800Z,4.28
2022-08-03T05:40:23.605Z,5.30
2022-08-03T05:46:33.256Z,7.18
2022-08-03T05:49:38.299Z,7.45
2022-08-03T05:52:44.233Z,6.45
2022-08-03T05:55:54.200Z,5.65
2022-08-03T05:59:16.353Z,4.63
2022-08-03T06:02:24.771Z,5.27
2022-08-03T06:05:29.886Z,5.32
2022-08-03T06:08:35.920Z,5.35
2022-08-03T06:11:43.376Z,4.90
2022-08-03T06:14:51.302Z,4.93
2022-08-03T06:18:01.791Z,4.13
2022-08-03T06:26:31.116Z,4.28
2022-08-03T06:29:36.012Z,4.22
2022-08-03T06:32:42.576Z,3.95
2022-08-03T06:35:56.833Z,3.38
2022-08-03T06:39:02.405Z,3.97
2022-08-03T06:42:07.278Z,3.97
2022-08-03T06:45:15.499Z,3.80
2022-08-03T06:48:20.134Z,6.63
2022-08-03T06:52:04.415Z,3.63
2022-08-03T06:54:49.708Z,3.47
2022-08-03T06:57:54.344Z,3.40
2022-08-03T07:01:04.348Z,3.78
2022-08-03T07:17:11.743Z,4.32
2022-08-03T07:20:18.714Z,3.65
2022-08-03T07:23:23.409Z,3.97
2022-08-03T07:26:27.966Z,4.78
2022-08-03T07:29:34.627Z,4.05
2022-08-03T07:32:50.421Z,4.00
2022-08-03T07:35:55.498Z,4.10
2022-08-03T07:39:00.204Z,3.80
2022-08-03T07:42:19.547Z,3.70
2022-08-03T07:45:24.632Z,3.80
2022-08-03T07:48:29.371Z,3.50
2022-08-03T08:01:24.249Z,3.97
2022-08-03T08:04:28.970Z,3.30
2022-08-03T08:07:33.636Z,3.85
2022-08-03T08:10:38.546Z,5.45
2022-08-03T08:13:43.678Z,7.30
2022-08-03T08:16:49.160Z,8.68
2022-08-03T08:19:53.980Z,7.20
2022-08-03T08:23:01.874Z,4.22
2022-08-03T08:26:07.682Z,3.78
2022-08-03T08:29:13.263Z,3.40
2022-08-03T08:32:18.158Z,4.95
2022-08-03T08:35:22.814Z,3.95
2022-08-03T08:38:27.942Z,4.00
2022-08-03T08:41:34.868Z,4.70
2022-08-03T08:44:39.551Z,4.75
2022-08-03T08:47:51.038Z,4.32
2022-08-03T08:50:58.845Z,4.20
2022-08-03T08:54:08.149Z,4.25
2022-08-03T08:57:40.451Z,4.80
2022-08-03T09:00:38.011Z,4.80
2022-08-03T09:03:43.115Z,5.50
2022-08-03T09:10:14.301Z,7.53
2022-08-03T09:13:19.289Z,8.98
2022-08-03T09:19:28.455Z,8.43
2022-08-03T09:22:34.320Z,8.57
2022-08-03T09:25:41.484Z,6.70
2022-08-03T09:29:01.491Z,7.95
2022-08-03T09:32:09.049Z,7.95
2022-08-03T09:35:16.113Z,7.15
2022-08-03T09:38:28.884Z,6.80
2022-08-03T09:41:35.282Z,5.60
2022-08-03T09:44:45.114Z,5.35
2022-08-03T09:47:49.730Z,5.40
2022-08-03T09:51:13.252Z,6.05
2022-08-03T09:54:36.997Z,6.85
2022-08-03T09:57:47.962Z,7.50
2022-08-03T10:01:05.452Z,4.95
2022-08-03T10:04:15.807Z,4.82
2022-08-03T10:07:23.069Z,5.35
2022-08-03T10:10:29.878Z,9.70
2022-08-03T10:13:38.569Z,8.75
2022-08-03T10:16:43.149Z,5.72
2022-08-03T10:19:49.626Z,5.18
2022-08-03T10:22:54.620Z,5.80
2022-08-03T10:29:13.511Z,5.65
2022-08-03T10:32:28.383Z,7.00
2022-08-03T10:35:34.264Z,8.10
2022-08-03T10:38:57.896Z,10.13
2022-08-03T10:42:03.406Z,7.30
2022-08-03T10:45:20.284Z,4.90
2022-08-03T10:48:26.674Z,4.13
2022-08-03T10:51:33.678Z,4.60
2022-08-03T10:55:07.804Z,3.65
2022-08-03T10:58:15.711Z,4.53
2022-08-03T11:01:58.658Z,3.50
2022-08-03T11:05:30.753Z,4.40
2022-08-03T11:08:35.789Z,4.45
2022-08-03T11:14:49.976Z,4.03
2022-08-03T11:18:11.731Z,5.03
2022-08-03T11:21:16.475Z,4.93
2022-08-03T11:24:44.624Z,4.90
2022-08-03T11:27:49.222Z,5.13
2022-08-03T11:30:53.987Z,5.05
2022-08-03T11:34:09.344Z,5.18
2022-08-03T11:37:31.550Z,5.50
2022-08-03T11:40:52.375Z,5.05
2022-08-03T11:43:56.854Z,6.15
2022-08-03T11:47:02.681Z,7.38
2022-08-03T11:50:08.117Z,6.20
2022-08-03T11:53:18.007Z,4.38
2022-08-03T11:56:22.702Z,8.30
2022-08-03T11:59:34.891Z,4.72
2022-08-03T12:02:39.536Z,4.78
2022-08-03T12:22:40.958Z,4.53
2022-08-03T12:25:47.707Z,4.93
2022-08-03T12:28:54.444Z,5.82
2022-08-03T12:31:59.117Z,4.65
2022-08-03T12:35:06.008Z,4.30
2022-08-03T12:38:14.171Z,4.10
2022-08-03T12:41:30.526Z,4.82
2022-08-03T12:44:37.798Z,4.60
2022-08-03T12:47:56.669Z,4.00
2022-08-03T12:51:12.314Z,5.70
2022-08-03T12:54:24.248Z,5.78
2022-08-03T12:57:43.123Z,5.10
2022-08-03T13:00:58.031Z,4.72
2022-08-03T13:04:02.829Z,5.18
2022-08-03T13:07:12.654Z,4.75
2022-08-03T13:10:36.047Z,5.13
2022-08-03T13:13:41.312Z,5.95
2022-08-03T13:16:45.989Z,5.30
2022-08-03T13:19:52.268Z,6.35
2022-08-03T13:23:00.818Z,5.57
2022-08-03T13:26:05.743Z,4.93
2022-08-03T13:29:10.592Z,5.32
2022-08-03T13:32:15.163Z,5.30
2022-08-03T13:35:19.908Z,5.15
2022-08-03T13:38:27.194Z,5.28
2022-08-03T13:41:33.049Z,4.45
2022-08-03T13:44:39.207Z,4.82
2022-08-03T13:47:43.860Z,4.70
2022-08-03T13:50:48.504Z,5.65
2022-08-03T13:53:53.262Z,5.10
2022-08-03T13:57:00.760Z,4.93
2022-08-03T14:00:29.255Z,5.60
2022-08-03T14:03:34.522Z,4.88
2022-08-03T14:06:39.052Z,5.25
2022-08-03T14:09:50.425Z,5.13
2022-08-03T14:12:56.625Z,5.15
2022-08-03T14:16:01.447Z,4.70
2022-08-03T14:19:07.447Z,4.95
2022-08-03T14:22:12.761Z,4.80
2022-08-03T14:25:17.299Z,4.45
2022-08-03T14:28:23.797Z,4.82
2022-08-03T14:32:10.321Z,4.90
2022-08-03T14:34:52.958Z,4.22
2022-08-03T14:37:57.727Z,4.63
2022-08-03T14:41:02.612Z,5.25
2022-08-03T14:47:11.742Z,4.35
2022-08-03T14:50:37.135Z,4.50
2022-08-03T14:53:42.549Z,4.70
2022-08-03T14:56:47.294Z,4.32
2022-08-03T14:59:56.207Z,4.70
2022-08-03T15:03:02.002Z,4.53
2022-08-03T15:06:06.600Z,5.40
2022-08-03T15:09:23.533Z,5.25
2022-08-03T15:12:29.504Z,4.95
2022-08-03T15:15:34.228Z,5.53
2022-08-03T15:18:38.810Z,5.65
2022-08-03T15:21:46.539Z,5.90
2022-08-03T15:24:52.005Z,5.13
2022-08-03T15:28:04.018Z,5.72
2022-08-03T15:31:09.406Z,5.75
2022-08-03T15:34:14.112Z,5.30
2022-08-03T15:37:19.390Z,5.90
2022-08-03T15:43:28.243Z,5.15
2022-08-03T15:46:32.801Z,6.25
2022-08-03T15:49:37.384Z,5.97
2022-08-03T15:52:42.007Z,6.45
2022-08-03T15:55:46.612Z,5.70
2022-08-03T15:59:03.925Z,5.45
2022-08-03T16:02:16.258Z,5.80
2022-08-03T16:05:21.036Z,6.20
2022-08-03T16:08:26.008Z,5.93
2022-08-03T16:11:30.351Z,6.20
2022-08-03T16:14:44.897Z,5.55
2022-08-03T16:17:56.520Z,5.47
2022-08-03T16:21:01.651Z,5.30
2022-08-03T16:24:07.374Z,5.10
2022-08-03T16:27:55.864Z,5.40
2022-08-03T16:30:46.691Z,4.85
2022-08-03T16:33:51.319Z,4.95
2022-08-03T16:36:55.911Z,4.88
2022-08-03T16:40:00.558Z,4.85
2022-08-03T16:43:17.824Z,4.60
2022-08-03T16:46:24.174Z,4.75
2022-08-03T16:52:53.102Z,5.07
2022-08-03T16:55:59.722Z,4.68
2022-08-03T16:59:05.619Z,5.03
2022-08-03T17:02:21.126Z,5.03
2022-08-03T17:05:43.813Z,3.90
2022-08-03T17:08:55.526Z,4.50
2022-08-03T17:12:00.426Z,4.35
2022-08-03T17:15:06.279Z,4.10
2022-08-03T17:18:19.098Z,4.20
2022-08-03T17:21:32.438Z,4.40
2022-08-03T17:24:42.324Z,4.25
2022-08-03T17:28:49.702Z,4.10
2022-08-03T17:31:23.565Z,4.32
2022-08-03T17:34:37.308Z,4.30
2022-08-03T17:37:58.240Z,3.92
2022-08-03T17:41:10.907Z,4.40
2022-08-03T17:44:32.014Z,4.30
2022-08-03T17:47:43.483Z,4.50
2022-08-03T17:50:56.073Z,4.80
2022-08-03T17:54:18.529Z,4.90
2022-08-03T17:58:02.426Z,3.97
2022-08-03T18:02:00.017Z,4.47
2022-08-03T18:05:16.617Z,3.80
2022-08-03T18:08:30.909Z,4.30
2022-08-03T18:11:39.488Z,4.80
2022-08-03T18:14:57.860Z,4.90
2022-08-03T18:18:10.551Z,4.90
2022-08-03T18:22:02.065Z,5.00
2022-08-03T18:28:16.252Z,4.32
2022-08-03T18:32:00.207Z,4.57
2022-08-03T18:34:53.840Z,4.65
2022-08-03T18:38:00.959Z,4.85
2022-08-03T18:41:13.243Z,4.30
2022-08-03T18:44:53.161Z,4.97
2022-08-03T18:47:52.048Z,4.57
2022-08-03T18:51:28.883Z,5.25
2022-08-03T18:55:01.079Z,4.75
2022-08-03T18:58:15.834Z,4.78
2022-08-03T19:02:00.186Z,4.80
2022-08-03T19:05:09.110Z,4.43
2022-08-03T19:08:26.147Z,4.50
2022-08-03T19:15:12.987Z,4.82
2022-08-03T19:18:19.069Z,4.20
2022-08-03T19:21:24.141Z,4.50
2022-08-03T19:24:30.677Z,4.78
2022-08-03T19:27:36.421Z,4.75
2022-08-03T19:30:46.169Z,5.82
2022-08-03T19:33:59.674Z,5.03
2022-08-03T19:37:04.927Z,4.68
2022-08-03T19:40:12.356Z,4.70
2022-08-03T19:43:49.346Z,4.68
2022-08-03T19:47:07.980Z,4.70
2022-08-03T19:50:14.166Z,4.20
2022-08-03T19:53:43.000Z,4.10
2022-08-03T19:56:53.779Z,4.82
2022-08-03T20:00:04.021Z,4.70
2022-08-03T20:03:21.694Z,4.35
2022-08-03T20:06:34.291Z,3.88
2022-08-03T20:09:44.643Z,4.65
2022-08-03T20:12:50.700Z,4.65
2022-08-03T20:15:55.231Z,4.82
2022-08-03T20:19:01.951Z,4.63
2022-08-03T20:22:08.264Z,4.88
2022-08-03T20:25:24.335Z,4.70
2022-08-03T20:28:57.505Z,4.55
2022-08-03T20:32:02.791Z,5.00
2022-08-03T20:38:16.313Z,4.07
2022-08-03T20:41:21.984Z,5.45
2022-08-03T20:44:26.839Z,4.70
2022-08-03T20:47:32.746Z,4.43
2022-08-03T20:50:40.623Z,4.45
2022-08-03T20:53:59.744Z,5.00
2022-08-03T21:00:34.062Z,5.38
2022-08-03T21:03:40.786Z,4.43
2022-08-03T21:07:14.720Z,4.57
2022-08-03T21:10:27.910Z,4.93
2022-08-03T21:13:07.827Z,4.65
2022-08-03T21:13:10.710Z,4.22
2022-08-03T21:13:56.580Z,5.13
2022-08-03T21:17:14.007Z,5.65
2022-08-03T21:20:31.548Z,4.47
2022-08-03T21:23:48.930Z,4.78
2022-08-03T21:26:55.985Z,4.93
2022-08-03T21:30:03.983Z,4.43
2022-08-03T21:33:08.580Z,5.90
2022-08-03T21:36:13.528Z,5.40
2022-08-03T21:39:18.055Z,5.88
2022-08-03T21:42:26.546Z,5.72
2022-08-03T21:45:32.917Z,5.20
2022-08-03T21:48:42.977Z,5.85
2022-08-03T21:51:51.497Z,5.00
2022-08-03T21:54:58.165Z,5.43
2022-08-03T21:58:06.857Z,5.10
2022-08-03T22:01:13.052Z,5.80
2022-08-03T22:04:50.560Z,5.93
2022-08-03T22:07:46.283Z,5.93
2022-08-03T22:10:50.970Z,5.78
2022-08-03T22:13:55.455Z,6.78
2022-08-03T22:17:00.742Z,6.20
2022-08-03T22:20:15.212Z,7.00
2022-08-03T22:23:23.782Z,7.30
2022-08-03T22:26:34.113Z,5.88
2022-08-03T22:29:43.293Z,6.93
2022-08-03T22:32:50.597Z,8.18
2022-08-03T22:35:59.995Z,7.97
2022-08-03T22:39:04.894Z,7.35
2022-08-03T22:42:10.354Z,7.15
2022-08-03T22:46:07.617Z,6.40
2022-08-03T22:48:41.621Z,7.77
2022-08-03T22:51:46.909Z,7.50
2022-08-03T22:54:53.180Z,6.18
2022-08-03T22:57:57.943Z,6.15
2022-08-03T23:01:14.018Z,6.68
2022-08-03T23:04:20.743Z,6.03
2022-08-03T23:07:32.698Z,6.78
2022-08-03T23:10:41.512Z,5.38
2022-08-03T23:13:55.098Z,5.97
2022-08-03T23:17:04.980Z,5.70
2022-08-03T23:20:11.038Z,5.53
2022-08-03T23:23:19.845Z,5.80
2022-08-03T23:26:27.655Z,5.55
2022-08-03T23:29:35.025Z,5.97
2022-08-03T23:32:43.011Z,5.30
2022-08-03T23:36:28.962Z,5.82
2022-08-03T23:39:35.114Z,5.32
2022-08-03T23:42:42.233Z,6.07
2022-08-03T23:45:49.303Z,5.25
2022-08-03T23:48:56.250Z,4.88
2022-08-03T23:52:15.973Z,5.00
2022-08-03T23:55:36.979Z,4.88
2022-08-03T23:58:54.271Z,4.70
